sensor_id;sensor_type;location;lat;lon;timestamp;temperature;humidity
25438;DHT22;13364;49.084;9.978;2022-12-18T00:02:10;-9.50;99.90
25438;DHT22;13364;49.084;9.978;2022-12-18T00:04:37;-9.40;99.90
25438;DHT22;13364;49.084;9.978;2022-12-18T00:07:04;-9.50;99.90
25438;DHT22;13364;49.084;9.978;2022-12-18T00:09:31;-9.40;99.90
25438;DHT22;13364;49.084;9.978;2022-12-18T00:12:06;-9.40;99.90
25438;DHT22;13364;49.084;9.978;2022-12-18T00:14:41;-9.40;99.90
25438;DHT22;13364;49.084;9.978;2022-12-18T00:17:09;-9.40;99.90
25438;DHT22;13364;49.084;9.978;2022-12-18T00:19:36;-9.30;99.90
25438;DHT22;13364;49.084;9.978;2022-12-18T00:22:03;-9.50;99.90
25438;DHT22;13364;49.084;9.978;2022-12-18T00:24:30;-9.40;99.90
25438;DHT22;13364;49.084;9.978;2022-12-18T00:26:57;-9.50;99.90
25438;DHT22;13364;49.084;9.978;2022-12-18T00:29:24;-5.60;99.90
25438;DHT22;13364;49.084;9.978;2022-12-18T00:31:51;-9.60;99.90
25438;DHT22;13364;49.084;9.978;2022-12-18T00:34:18;-9.70;99.90
25438;DHT22;13364;49.084;9.978;2022-12-18T00:36:46;-9.60;99.90
25438;DHT22;13364;49.084;9.978;2022-12-18T00:39:13;-9.60;99.90
25438;DHT22;13364;49.084;9.978;2022-12-18T00:41:43;-9.70;99.90
25438;DHT22;13364;49.084;9.978;2022-12-18T00:44:30;-5.70;99.90
25438;DHT22;13364;49.084;9.978;2022-12-18T00:46:57;-9.60;99.90
25438;DHT22;13364;49.084;9.978;2022-12-18T00:49:24;-9.50;99.90
25438;DHT22;13364;49.084;9.978;2022-12-18T00:51:51;-9.60;99.90
25438;DHT22;13364;49.084;9.978;2022-12-18T00:54:18;-9.50;99.90
25438;DHT22;13364;49.084;9.978;2022-12-18T00:56:45;-9.50;99.90
25438;DHT22;13364;49.084;9.978;2022-12-18T00:59:17;-9.40;99.90
25438;DHT22;13364;49.084;9.978;2022-12-18T01:01:44;-9.50;99.90
25438;DHT22;13364;49.084;9.978;2022-12-18T01:04:11;-9.50;99.90
25438;DHT22;13364;49.084;9.978;2022-12-18T01:06:38;-9.50;99.90
25438;DHT22;13364;49.084;9.978;2022-12-18T01:09:05;-6.40;99.90
25438;DHT22;13364;49.084;9.978;2022-12-18T01:11:35;-9.50;99.90
25438;DHT22;13364;49.084;9.978;2022-12-18T01:14:03;-9.50;99.90
25438;DHT22;13364;49.084;9.978;2022-12-18T01:16:30;-9.60;99.90
25438;DHT22;13364;49.084;9.978;2022-12-18T01:18:57;-9.60;99.90
25438;DHT22;13364;49.084;9.978;2022-12-18T01:21:26;-9.70;99.90
25438;DHT22;13364;49.084;9.978;2022-12-18T01:23:54;-9.80;99.90
25438;DHT22;13364;49.084;9.978;2022-12-18T01:26:23;-9.60;99.90
25438;DHT22;13364;49.084;9.978;2022-12-18T01:28:50;-9.80;99.90
25438;DHT22;13364;49.084;9.978;2022-12-18T01:31:22;-9.90;99.90
25438;DHT22;13364;49.084;9.978;2022-12-18T01:33:49;-9.90;99.90
25438;DHT22;13364;49.084;9.978;2022-12-18T01:36:33;-9.80;99.90
25438;DHT22;13364;49.084;9.978;2022-12-18T01:39:01;-9.90;99.90
25438;DHT22;13364;49.084;9.978;2022-12-18T01:41:30;-10.00;99.90
25438;DHT22;13364;49.084;9.978;2022-12-18T01:47:03;-9.90;99.90
25438;DHT22;13364;49.084;9.978;2022-12-18T01:49:29;-10.00;99.90
25438;DHT22;13364;49.084;9.978;2022-12-18T01:51:56;-9.90;99.90
25438;DHT22;13364;49.084;9.978;2022-12-18T01:54:23;-5.70;99.90
25438;DHT22;13364;49.084;9.978;2022-12-18T01:56:50;-9.90;99.90
25438;DHT22;13364;49.084;9.978;2022-12-18T01:59:17;-10.00;99.90
25438;DHT22;13364;49.084;9.978;2022-12-18T02:01:44;-10.00;99.90
25438;DHT22;13364;49.084;9.978;2022-12-18T02:04:25;-10.10;99.90
25438;DHT22;13364;49.084;9.978;2022-12-18T02:09:55;-10.00;99.90
25438;DHT22;13364;49.084;9.978;2022-12-18T02:12:24;-9.90;99.90
25438;DHT22;13364;49.084;9.978;2022-12-18T02:17:39;-10.00;99.90
25438;DHT22;13364;49.084;9.978;2022-12-18T02:22:59;-10.10;99.90
25438;DHT22;13364;49.084;9.978;2022-12-18T02:28:14;-10.10;99.90
25438;DHT22;13364;49.084;9.978;2022-12-18T02:30:44;-9.70;99.90
25438;DHT22;13364;49.084;9.978;2022-12-18T02:33:13;-10.10;99.90
25438;DHT22;13364;49.084;9.978;2022-12-18T02:35:42;-10.00;99.90
25438;DHT22;13364;49.084;9.978;2022-12-18T02:38:09;-10.20;99.90
25438;DHT22;13364;49.084;9.978;2022-12-18T02:40:39;-10.20;99.90
25438;DHT22;13364;49.084;9.978;2022-12-18T02:43:09;-10.30;99.90
25438;DHT22;13364;49.084;9.978;2022-12-18T02:45:46;-10.10;99.90
25438;DHT22;13364;49.084;9.978;2022-12-18T02:48:14;-10.20;99.90
25438;DHT22;13364;49.084;9.978;2022-12-18T02:50:50;-10.10;99.90
25438;DHT22;13364;49.084;9.978;2022-12-18T03:02:24;-10.20;99.90
25438;DHT22;13364;49.084;9.978;2022-12-18T03:04:55;-7.00;99.90
25438;DHT22;13364;49.084;9.978;2022-12-18T03:07:28;-10.20;99.90
25438;DHT22;13364;49.084;9.978;2022-12-18T03:09:59;-10.10;99.90
25438;DHT22;13364;49.084;9.978;2022-12-18T03:12:31;-10.20;99.90
25438;DHT22;13364;49.084;9.978;2022-12-18T03:17:50;-10.20;99.90
25438;DHT22;13364;49.084;9.978;2022-12-18T03:20:19;-6.40;99.90
25438;DHT22;13364;49.084;9.978;2022-12-18T03:22:49;-10.20;99.90
25438;DHT22;13364;49.084;9.978;2022-12-18T03:25:18;-6.30;99.90
25438;DHT22;13364;49.084;9.978;2022-12-18T03:27:47;-10.20;99.90
25438;DHT22;13364;49.084;9.978;2022-12-18T03:30:16;-6.10;99.90
25438;DHT22;13364;49.084;9.978;2022-12-18T03:32:48;-10.20;99.90
25438;DHT22;13364;49.084;9.978;2022-12-18T03:35:22;-10.10;99.90
25438;DHT22;13364;49.084;9.978;2022-12-18T03:37:50;-10.20;99.90
25438;DHT22;13364;49.084;9.978;2022-12-18T03:40:18;-6.40;99.90
25438;DHT22;13364;49.084;9.978;2022-12-18T03:42:49;-10.20;99.90
25438;DHT22;13364;49.084;9.978;2022-12-18T03:45:23;-10.30;99.90
25438;DHT22;13364;49.084;9.978;2022-12-18T03:52:56;-10.30;99.90
25438;DHT22;13364;49.084;9.978;2022-12-18T03:55:24;-9.90;99.90
25438;DHT22;13364;49.084;9.978;2022-12-18T03:57:57;-10.10;99.90
25438;DHT22;13364;49.084;9.978;2022-12-18T04:00:30;-9.80;99.90
25438;DHT22;13364;49.084;9.978;2022-12-18T04:03:05;-10.30;99.90
25438;DHT22;13364;49.084;9.978;2022-12-18T04:05:39;-10.20;99.90
25438;DHT22;13364;49.084;9.978;2022-12-18T04:08:07;-10.40;99.90
25438;DHT22;13364;49.084;9.978;2022-12-18T04:10:37;-10.30;99.90
25438;DHT22;13364;49.084;9.978;2022-12-18T04:13:04;-10.40;99.90
25438;DHT22;13364;49.084;9.978;2022-12-18T04:15:32;-10.30;99.90
25438;DHT22;13364;49.084;9.978;2022-12-18T04:18:02;-10.40;99.90
25438;DHT22;13364;49.084;9.978;2022-12-18T04:20:36;-10.40;99.90
25438;DHT22;13364;49.084;9.978;2022-12-18T04:23:03;-10.40;99.90
25438;DHT22;13364;49.084;9.978;2022-12-18T04:25:30;-10.60;99.90
25438;DHT22;13364;49.084;9.978;2022-12-18T04:28:05;-10.50;99.90
25438;DHT22;13364;49.084;9.978;2022-12-18T04:30:34;-10.40;99.90
25438;DHT22;13364;49.084;9.978;2022-12-18T04:33:00;-10.40;99.90
25438;DHT22;13364;49.084;9.978;2022-12-18T04:35:30;-10.40;99.90
25438;DHT22;13364;49.084;9.978;2022-12-18T04:37:56;-10.40;99.90
25438;DHT22;13364;49.084;9.978;2022-12-18T04:40:23;-10.30;99.90
25438;DHT22;13364;49.084;9.978;2022-12-18T04:42:51;-10.30;99.90
25438;DHT22;13364;49.084;9.978;2022-12-18T04:45:18;-10.30;99.90
25438;DHT22;13364;49.084;9.978;2022-12-18T04:47:45;-10.30;99.90
25438;DHT22;13364;49.084;9.978;2022-12-18T04:50:12;-10.20;99.90
25438;DHT22;13364;49.084;9.978;2022-12-18T04:52:39;-10.20;99.90
25438;DHT22;13364;49.084;9.978;2022-12-18T04:55:05;-7.20;99.90
25438;DHT22;13364;49.084;9.978;2022-12-18T04:57:32;-10.20;99.90
25438;DHT22;13364;49.084;9.978;2022-12-18T04:59:59;-10.00;99.90
25438;DHT22;13364;49.084;9.978;2022-12-18T05:02:26;-10.20;99.90
25438;DHT22;13364;49.084;9.978;2022-12-18T05:04:53;-10.10;99.90
25438;DHT22;13364;49.084;9.978;2022-12-18T05:07:20;-10.10;99.90
25438;DHT22;13364;49.084;9.978;2022-12-18T05:09:47;-8.90;99.90
25438;DHT22;13364;49.084;9.978;2022-12-18T05:12:14;-10.00;99.90
25438;DHT22;13364;49.084;9.978;2022-12-18T05:14:41;-5.90;99.90
25438;DHT22;13364;49.084;9.978;2022-12-18T05:17:08;-10.00;99.90
25438;DHT22;13364;49.084;9.978;2022-12-18T05:19:35;-9.90;99.90
25438;DHT22;13364;49.084;9.978;2022-12-18T05:26:03;-9.90;99.90
25438;DHT22;13364;49.084;9.978;2022-12-18T05:28:31;-7.10;99.90
25438;DHT22;13364;49.084;9.978;2022-12-18T05:30:59;-10.00;99.90
25438;DHT22;13364;49.084;9.978;2022-12-18T05:33:27;-5.90;99.90
25438;DHT22;13364;49.084;9.978;2022-12-18T05:35:56;-9.90;99.90
25438;DHT22;13364;49.084;9.978;2022-12-18T05:38:24;-6.60;99.90
25438;DHT22;13364;49.084;9.978;2022-12-18T05:40:51;-9.80;99.90
25438;DHT22;13364;49.084;9.978;2022-12-18T05:43:19;-5.90;99.90
25438;DHT22;13364;49.084;9.978;2022-12-18T05:45:48;-9.80;99.90
25438;DHT22;13364;49.084;9.978;2022-12-18T05:48:15;-5.50;99.90
25438;DHT22;13364;49.084;9.978;2022-12-18T05:50:44;-9.80;99.90
25438;DHT22;13364;49.084;9.978;2022-12-18T05:53:14;-9.70;99.90
25438;DHT22;13364;49.084;9.978;2022-12-18T05:55:42;-5.20;99.90
25438;DHT22;13364;49.084;9.978;2022-12-18T05:58:09;-9.70;99.90
25438;DHT22;13364;49.084;9.978;2022-12-18T06:00:37;-9.50;99.90
25438;DHT22;13364;49.084;9.978;2022-12-18T06:03:08;-9.60;99.90
25438;DHT22;13364;49.084;9.978;2022-12-18T06:05:36;-9.40;99.90
25438;DHT22;13364;49.084;9.978;2022-12-18T06:08:03;-9.60;99.90
25438;DHT22;13364;49.084;9.978;2022-12-18T06:10:31;-9.40;99.90
25438;DHT22;13364;49.084;9.978;2022-12-18T06:12:58;-9.50;99.90
25438;DHT22;13364;49.084;9.978;2022-12-18T06:15:25;-9.50;99.90
25438;DHT22;13364;49.084;9.978;2022-12-18T06:17:51;-9.40;99.90
25438;DHT22;13364;49.084;9.978;2022-12-18T06:20:18;-9.40;99.90
25438;DHT22;13364;49.084;9.978;2022-12-18T06:22:45;-9.40;99.90
25438;DHT22;13364;49.084;9.978;2022-12-18T06:25:12;-5.50;99.90
25438;DHT22;13364;49.084;9.978;2022-12-18T06:27:40;-9.40;99.90
25438;DHT22;13364;49.084;9.978;2022-12-18T06:30:07;-9.30;99.90
25438;DHT22;13364;49.084;9.978;2022-12-18T06:32:34;-9.30;99.90
25438;DHT22;13364;49.084;9.978;2022-12-18T06:35:01;-5.30;99.90
25438;DHT22;13364;49.084;9.978;2022-12-18T06:37:28;-9.20;99.90
25438;DHT22;13364;49.084;9.978;2022-12-18T06:39:57;-9.20;99.90
25438;DHT22;13364;49.084;9.978;2022-12-18T06:42:24;-9.20;99.90
25438;DHT22;13364;49.084;9.978;2022-12-18T06:44:51;-9.10;99.90
25438;DHT22;13364;49.084;9.978;2022-12-18T06:47:18;-9.20;99.90
25438;DHT22;13364;49.084;9.978;2022-12-18T06:49:45;-9.10;99.90
25438;DHT22;13364;49.084;9.978;2022-12-18T06:52:12;-9.10;99.90
25438;DHT22;13364;49.084;9.978;2022-12-18T06:54:39;-5.80;99.90
25438;DHT22;13364;49.084;9.978;2022-12-18T06:57:06;-9.10;99.90
25438;DHT22;13364;49.084;9.978;2022-12-18T06:59:33;-8.80;99.90
25438;DHT22;13364;49.084;9.978;2022-12-18T07:01:59;-9.00;99.90
25438;DHT22;13364;49.084;9.978;2022-12-18T07:04:27;-4.60;99.90
25438;DHT22;13364;49.084;9.978;2022-12-18T07:06:54;-5.10;99.90
25438;DHT22;13364;49.084;9.978;2022-12-18T07:09:21;-8.80;99.90
25438;DHT22;13364;49.084;9.978;2022-12-18T07:11:48;-8.80;99.90
25438;DHT22;13364;49.084;9.978;2022-12-18T07:14:15;-4.90;99.90
25438;DHT22;13364;49.084;9.978;2022-12-18T07:16:42;-8.70;99.90
25438;DHT22;13364;49.084;9.978;2022-12-18T07:19:09;-8.60;99.90
25438;DHT22;13364;49.084;9.978;2022-12-18T07:21:36;-8.60;99.90
25438;DHT22;13364;49.084;9.978;2022-12-18T07:24:03;-8.40;99.90
25438;DHT22;13364;49.084;9.978;2022-12-18T07:26:30;-8.50;99.90
25438;DHT22;13364;49.084;9.978;2022-12-18T07:28:57;-5.20;99.90
25438;DHT22;13364;49.084;9.978;2022-12-18T07:31:24;-8.50;99.90
25438;DHT22;13364;49.084;9.978;2022-12-18T07:33:51;-8.50;99.90
25438;DHT22;13364;49.084;9.978;2022-12-18T07:36:18;-3.80;99.90
25438;DHT22;13364;49.084;9.978;2022-12-18T07:38:49;-8.40;99.90
25438;DHT22;13364;49.084;9.978;2022-12-18T07:41:16;-8.20;99.90
25438;DHT22;13364;49.084;9.978;2022-12-18T07:43:43;-8.40;99.90
25438;DHT22;13364;49.084;9.978;2022-12-18T07:46:11;-8.20;99.90
25438;DHT22;13364;49.084;9.978;2022-12-18T07:48:41;-8.30;99.90
25438;DHT22;13364;49.084;9.978;2022-12-18T07:51:09;-8.10;99.90
25438;DHT22;13364;49.084;9.978;2022-12-18T07:53:39;-8.20;99.90
25438;DHT22;13364;49.084;9.978;2022-12-18T07:56:07;-5.30;99.90
25438;DHT22;13364;49.084;9.978;2022-12-18T08:01:48;-8.00;99.90
25438;DHT22;13364;49.084;9.978;2022-12-18T08:04:15;-5.60;99.90
25438;DHT22;13364;49.084;9.978;2022-12-18T08:06:42;-7.90;99.90
25438;DHT22;13364;49.084;9.978;2022-12-18T08:09:13;-4.00;99.90
25438;DHT22;13364;49.084;9.978;2022-12-18T08:11:40;-7.90;99.90
25438;DHT22;13364;49.084;9.978;2022-12-18T08:14:07;-3.50;99.90
25438;DHT22;13364;49.084;9.978;2022-12-18T08:16:34;-7.90;99.90
25438;DHT22;13364;49.084;9.978;2022-12-18T08:19:01;-4.50;99.90
25438;DHT22;13364;49.084;9.978;2022-12-18T08:21:29;-7.80;99.90
25438;DHT22;13364;49.084;9.978;2022-12-18T08:24:00;-4.90;99.90
25438;DHT22;13364;49.084;9.978;2022-12-18T08:26:29;-7.70;99.90
25438;DHT22;13364;49.084;9.978;2022-12-18T08:28:57;-7.70;99.90
25438;DHT22;13364;49.084;9.978;2022-12-18T08:31:25;-3.70;99.90
25438;DHT22;13364;49.084;9.978;2022-12-18T08:33:52;-7.70;99.90
25438;DHT22;13364;49.084;9.978;2022-12-18T08:36:21;-3.40;99.90
25438;DHT22;13364;49.084;9.978;2022-12-18T08:38:49;-7.50;99.90
25438;DHT22;13364;49.084;9.978;2022-12-18T08:41:16;-4.90;99.90
25438;DHT22;13364;49.084;9.978;2022-12-18T08:43:43;-4.30;99.90
25438;DHT22;13364;49.084;9.978;2022-12-18T08:46:33;-4.60;99.90
25438;DHT22;13364;49.084;9.978;2022-12-18T08:49:01;-7.40;99.90
25438;DHT22;13364;49.084;9.978;2022-12-18T08:51:29;-3.30;99.90
25438;DHT22;13364;49.084;9.978;2022-12-18T08:53:56;-7.40;99.90
25438;DHT22;13364;49.084;9.978;2022-12-18T08:56:23;-7.30;99.90
25438;DHT22;13364;49.084;9.978;2022-12-18T09:01:46;-7.20;99.90
25438;DHT22;13364;49.084;9.978;2022-12-18T09:04:13;-8.40;99.90
25438;DHT22;13364;49.084;9.978;2022-12-18T09:06:40;-3.20;99.90
25438;DHT22;13364;49.084;9.978;2022-12-18T09:09:09;-6.90;99.90
25438;DHT22;13364;49.084;9.978;2022-12-18T09:11:36;-7.00;99.90
25438;DHT22;13364;49.084;9.978;2022-12-18T09:14:03;-7.10;99.90
25438;DHT22;13364;49.084;9.978;2022-12-18T09:16:32;-7.00;99.90
25438;DHT22;13364;49.084;9.978;2022-12-18T09:18:59;-3.20;99.90
25438;DHT22;13364;49.084;9.978;2022-12-18T09:21:27;-6.90;99.90
25438;DHT22;13364;49.084;9.978;2022-12-18T09:23:55;-6.80;99.90
25438;DHT22;13364;49.084;9.978;2022-12-18T09:26:22;-3.10;99.90
25438;DHT22;13364;49.084;9.978;2022-12-18T09:28:49;-2.80;99.90
25438;DHT22;13364;49.084;9.978;2022-12-18T09:31:17;-2.70;99.90
25438;DHT22;13364;49.084;9.978;2022-12-18T09:33:45;-2.90;99.90
25438;DHT22;13364;49.084;9.978;2022-12-18T09:36:13;-4.10;99.90
25438;DHT22;13364;49.084;9.978;2022-12-18T09:38:40;-6.70;99.90
25438;DHT22;13364;49.084;9.978;2022-12-18T09:43:55;-6.60;99.90
25438;DHT22;13364;49.084;9.978;2022-12-18T09:46:26;-3.30;99.90
25438;DHT22;13364;49.084;9.978;2022-12-18T09:48:54;-6.60;99.90
25438;DHT22;13364;49.084;9.978;2022-12-18T09:51:25;-2.70;99.90
25438;DHT22;13364;49.084;9.978;2022-12-18T09:53:57;-6.50;99.90
25438;DHT22;13364;49.084;9.978;2022-12-18T09:56:26;-6.00;99.90
25438;DHT22;13364;49.084;9.978;2022-12-18T09:58:58;-3.30;99.90
25438;DHT22;13364;49.084;9.978;2022-12-18T10:01:26;-6.00;99.90
25438;DHT22;13364;49.084;9.978;2022-12-18T10:04:04;-6.20;99.90
25438;DHT22;13364;49.084;9.978;2022-12-18T10:06:37;-6.20;99.90
25438;DHT22;13364;49.084;9.978;2022-12-18T10:09:09;-6.10;99.90
25438;DHT22;13364;49.084;9.978;2022-12-18T10:17:03;-6.10;99.90
25438;DHT22;13364;49.084;9.978;2022-12-18T10:19:54;-5.80;99.90
25438;DHT22;13364;49.084;9.978;2022-12-18T10:27:36;-8.30;99.90
25438;DHT22;13364;49.084;9.978;2022-12-18T10:30:11;-2.40;99.90
25438;DHT22;13364;49.084;9.978;2022-12-18T10:32:39;-5.70;99.90
25438;DHT22;13364;49.084;9.978;2022-12-18T10:40:30;-5.70;99.90
25438;DHT22;13364;49.084;9.978;2022-12-18T10:43:14;-5.70;99.90
25438;DHT22;13364;49.084;9.978;2022-12-18T10:45:42;-5.60;99.90
25438;DHT22;13364;49.084;9.978;2022-12-18T10:48:24;-5.60;99.90
25438;DHT22;13364;49.084;9.978;2022-12-18T10:50:51;-3.40;99.90
25438;DHT22;13364;49.084;9.978;2022-12-18T10:53:40;-5.50;99.90
25438;DHT22;13364;49.084;9.978;2022-12-18T10:56:08;-5.50;99.90
25438;DHT22;13364;49.084;9.978;2022-12-18T10:58:43;-5.50;99.90
25438;DHT22;13364;49.084;9.978;2022-12-18T11:01:21;-5.50;99.90
25438;DHT22;13364;49.084;9.978;2022-12-18T11:06:27;-5.40;99.90
25438;DHT22;13364;49.084;9.978;2022-12-18T11:09:00;-4.50;99.90
25438;DHT22;13364;49.084;9.978;2022-12-18T11:11:33;-5.40;99.90
25438;DHT22;13364;49.084;9.978;2022-12-18T11:17:20;-5.30;99.90
25438;DHT22;13364;49.084;9.978;2022-12-18T11:19:57;-5.30;99.90
25438;DHT22;13364;49.084;9.978;2022-12-18T11:22:30;-5.20;99.90
25438;DHT22;13364;49.084;9.978;2022-12-18T11:25:00;-3.70;99.90
25438;DHT22;13364;49.084;9.978;2022-12-18T11:30:48;-5.20;99.90
25438;DHT22;13364;49.084;9.978;2022-12-18T11:33:19;-5.20;99.90
25438;DHT22;13364;49.084;9.978;2022-12-18T11:35:48;-5.30;99.90
25438;DHT22;13364;49.084;9.978;2022-12-18T11:44:28;-5.00;99.90
25438;DHT22;13364;49.084;9.978;2022-12-18T11:49:41;-4.90;99.90
25438;DHT22;13364;49.084;9.978;2022-12-18T11:52:22;-4.90;99.90
25438;DHT22;13364;49.084;9.978;2022-12-18T11:55:00;-4.80;99.90
25438;DHT22;13364;49.084;9.978;2022-12-18T12:00:11;-4.50;99.90
25438;DHT22;13364;49.084;9.978;2022-12-18T12:22:47;-4.60;99.90
25438;DHT22;13364;49.084;9.978;2022-12-18T12:25:44;-4.70;99.90
25438;DHT22;13364;49.084;9.978;2022-12-18T12:28:36;-4.70;99.90
25438;DHT22;13364;49.084;9.978;2022-12-18T12:38:33;-4.60;99.90
25438;DHT22;13364;49.084;9.978;2022-12-18T12:41:07;-4.60;99.90
25438;DHT22;13364;49.084;9.978;2022-12-18T12:43:57;-4.70;99.90
25438;DHT22;13364;49.084;9.978;2022-12-18T12:46:26;-4.80;99.90
25438;DHT22;13364;49.084;9.978;2022-12-18T12:48:56;-4.80;99.90
25438;DHT22;13364;49.084;9.978;2022-12-18T12:51:33;-4.90;99.90
25438;DHT22;13364;49.084;9.978;2022-12-18T12:54:04;-4.90;99.90
25438;DHT22;13364;49.084;9.978;2022-12-18T12:56:59;-4.90;99.90
25438;DHT22;13364;49.084;9.978;2022-12-18T13:04:08;-5.10;99.90
25438;DHT22;13364;49.084;9.978;2022-12-18T13:09:21;-3.00;99.90
25438;DHT22;13364;49.084;9.978;2022-12-18T13:11:48;-5.20;99.90
25438;DHT22;13364;49.084;9.978;2022-12-18T13:14:35;-5.10;99.90
25438;DHT22;13364;49.084;9.978;2022-12-18T13:19:49;-5.00;99.90
25438;DHT22;13364;49.084;9.978;2022-12-18T13:22:38;-5.00;99.90
25438;DHT22;13364;49.084;9.978;2022-12-18T13:25:41;-5.00;99.90
25438;DHT22;13364;49.084;9.978;2022-12-18T13:28:12;-2.70;99.90
25438;DHT22;13364;49.084;9.978;2022-12-18T13:30:51;-4.90;99.90
25438;DHT22;13364;49.084;9.978;2022-12-18T13:36:16;-4.90;99.90
25438;DHT22;13364;49.084;9.978;2022-12-18T13:38:44;-4.90;99.90
25438;DHT22;13364;49.084;9.978;2022-12-18T13:43:55;-4.90;99.90
25438;DHT22;13364;49.084;9.978;2022-12-18T13:46:29;-4.90;99.90
25438;DHT22;13364;49.084;9.978;2022-12-18T13:53:26;-5.00;99.90
25438;DHT22;13364;49.084;9.978;2022-12-18T13:55:55;-5.10;99.90
25438;DHT22;13364;49.084;9.978;2022-12-18T13:58:22;-5.20;99.90
25438;DHT22;13364;49.084;9.978;2022-12-18T14:00:49;-5.20;99.90
25438;DHT22;13364;49.084;9.978;2022-12-18T14:03:20;-5.10;99.90
25438;DHT22;13364;49.084;9.978;2022-12-18T14:05:58;-5.10;99.90
25438;DHT22;13364;49.084;9.978;2022-12-18T14:08:32;-5.10;99.90
25438;DHT22;13364;49.084;9.978;2022-12-18T14:11:00;-5.10;99.90
25438;DHT22;13364;49.084;9.978;2022-12-18T14:13:32;-5.10;99.90
25438;DHT22;13364;49.084;9.978;2022-12-18T14:16:03;-2.80;99.90
25438;DHT22;13364;49.084;9.978;2022-12-18T14:18:53;-5.10;99.90
25438;DHT22;13364;49.084;9.978;2022-12-18T14:22:02;-5.20;99.90
25438;DHT22;13364;49.084;9.978;2022-12-18T14:24:29;-5.20;99.90
25438;DHT22;13364;49.084;9.978;2022-12-18T14:27:13;-4.60;99.90
25438;DHT22;13364;49.084;9.978;2022-12-18T14:29:46;-3.80;99.90
25438;DHT22;13364;49.084;9.978;2022-12-18T14:32:18;-5.40;99.90
25438;DHT22;13364;49.084;9.978;2022-12-18T14:34:50;-3.50;99.90
25438;DHT22;13364;49.084;9.978;2022-12-18T14:37:23;-5.60;99.90
25438;DHT22;13364;49.084;9.978;2022-12-18T14:42:21;-5.60;99.90
25438;DHT22;13364;49.084;9.978;2022-12-18T14:44:48;-5.60;99.90
25438;DHT22;13364;49.084;9.978;2022-12-18T14:47:35;-5.70;99.90
25438;DHT22;13364;49.084;9.978;2022-12-18T14:56:33;-5.90;99.90
25438;DHT22;13364;49.084;9.978;2022-12-18T14:59:03;-5.90;99.90
25438;DHT22;13364;49.084;9.978;2022-12-18T15:01:44;-5.90;99.90
25438;DHT22;13364;49.084;9.978;2022-12-18T15:04:26;-6.00;99.90
25438;DHT22;13364;49.084;9.978;2022-12-18T15:07:05;-6.00;99.90
25438;DHT22;13364;49.084;9.978;2022-12-18T15:09:34;-6.00;99.90
25438;DHT22;13364;49.084;9.978;2022-12-18T15:12:01;-6.10;99.90
25438;DHT22;13364;49.084;9.978;2022-12-18T15:14:39;-6.10;99.90
25438;DHT22;13364;49.084;9.978;2022-12-18T15:17:21;-6.20;99.90
25438;DHT22;13364;49.084;9.978;2022-12-18T15:19:53;-6.20;99.90
25438;DHT22;13364;49.084;9.978;2022-12-18T15:22:27;-6.20;99.90
25438;DHT22;13364;49.084;9.978;2022-12-18T15:24:56;-6.30;99.90
25438;DHT22;13364;49.084;9.978;2022-12-18T15:27:28;-6.30;99.90
25438;DHT22;13364;49.084;9.978;2022-12-18T15:32:39;-6.30;99.90
25438;DHT22;13364;49.084;9.978;2022-12-18T15:35:13;-6.40;99.90
25438;DHT22;13364;49.084;9.978;2022-12-18T15:37:41;-6.30;99.90
25438;DHT22;13364;49.084;9.978;2022-12-18T15:40:13;-6.40;99.90
25438;DHT22;13364;49.084;9.978;2022-12-18T15:42:43;-6.40;99.90
25438;DHT22;13364;49.084;9.978;2022-12-18T15:45:29;-6.50;99.90
25438;DHT22;13364;49.084;9.978;2022-12-18T15:47:57;-6.50;99.90
25438;DHT22;13364;49.084;9.978;2022-12-18T15:50:24;-6.50;99.90
25438;DHT22;13364;49.084;9.978;2022-12-18T15:52:53;-6.50;99.90
25438;DHT22;13364;49.084;9.978;2022-12-18T15:55:23;-6.50;99.90
25438;DHT22;13364;49.084;9.978;2022-12-18T15:58:10;-6.40;99.90
25438;DHT22;13364;49.084;9.978;2022-12-18T16:00:40;-6.50;99.90
25438;DHT22;13364;49.084;9.978;2022-12-18T16:03:08;-6.50;99.90
25438;DHT22;13364;49.084;9.978;2022-12-18T16:05:36;-6.50;99.90
25438;DHT22;13364;49.084;9.978;2022-12-18T16:08:03;-6.50;99.90
25438;DHT22;13364;49.084;9.978;2022-12-18T16:10:30;-6.50;99.90
25438;DHT22;13364;49.084;9.978;2022-12-18T16:12:57;-6.50;99.90
25438;DHT22;13364;49.084;9.978;2022-12-18T16:15:24;-6.50;99.90
25438;DHT22;13364;49.084;9.978;2022-12-18T16:17:51;-6.50;99.90
25438;DHT22;13364;49.084;9.978;2022-12-18T16:20:20;-6.50;99.90
25438;DHT22;13364;49.084;9.978;2022-12-18T16:22:48;-6.60;99.90
25438;DHT22;13364;49.084;9.978;2022-12-18T16:25:21;-5.00;99.90
25438;DHT22;13364;49.084;9.978;2022-12-18T16:27:48;-6.50;99.90
25438;DHT22;13364;49.084;9.978;2022-12-18T16:30:20;-6.60;99.90
25438;DHT22;13364;49.084;9.978;2022-12-18T16:32:48;-6.60;99.90
25438;DHT22;13364;49.084;9.978;2022-12-18T16:35:16;-6.60;99.90
25438;DHT22;13364;49.084;9.978;2022-12-18T16:37:43;-6.60;99.90
25438;DHT22;13364;49.084;9.978;2022-12-18T16:40:15;-6.70;99.90
25438;DHT22;13364;49.084;9.978;2022-12-18T16:42:44;-6.70;99.90
25438;DHT22;13364;49.084;9.978;2022-12-18T16:45:15;-6.70;99.90
25438;DHT22;13364;49.084;9.978;2022-12-18T16:47:43;-6.80;99.90
25438;DHT22;13364;49.084;9.978;2022-12-18T16:50:10;-6.70;99.90
25438;DHT22;13364;49.084;9.978;2022-12-18T16:52:38;-6.80;99.90
25438;DHT22;13364;49.084;9.978;2022-12-18T16:55:05;-6.80;99.90
25438;DHT22;13364;49.084;9.978;2022-12-18T16:57:32;-6.70;99.90
25438;DHT22;13364;49.084;9.978;2022-12-18T16:59:59;-6.80;99.90
25438;DHT22;13364;49.084;9.978;2022-12-18T17:02:31;-6.80;99.90
25438;DHT22;13364;49.084;9.978;2022-12-18T17:04:59;-6.90;99.90
25438;DHT22;13364;49.084;9.978;2022-12-18T17:07:26;-6.90;99.90
25438;DHT22;13364;49.084;9.978;2022-12-18T17:09:54;-6.90;99.90
25438;DHT22;13364;49.084;9.978;2022-12-18T17:12:21;-6.90;99.90
25438;DHT22;13364;49.084;9.978;2022-12-18T17:14:49;-6.90;99.90
25438;DHT22;13364;49.084;9.978;2022-12-18T17:17:16;-6.90;99.90
25438;DHT22;13364;49.084;9.978;2022-12-18T17:19:48;-6.90;99.90
25438;DHT22;13364;49.084;9.978;2022-12-18T17:22:16;-6.80;99.90
25438;DHT22;13364;49.084;9.978;2022-12-18T17:24:43;-6.80;99.90
25438;DHT22;13364;49.084;9.978;2022-12-18T17:27:10;-6.80;99.90
25438;DHT22;13364;49.084;9.978;2022-12-18T17:29:37;-6.80;99.90
25438;DHT22;13364;49.084;9.978;2022-12-18T17:32:12;-6.80;99.90
25438;DHT22;13364;49.084;9.978;2022-12-18T17:34:39;-6.80;99.90
25438;DHT22;13364;49.084;9.978;2022-12-18T17:37:06;-6.80;99.90
25438;DHT22;13364;49.084;9.978;2022-12-18T17:39:33;-6.80;99.90
25438;DHT22;13364;49.084;9.978;2022-12-18T17:42:00;-5.30;99.90
25438;DHT22;13364;49.084;9.978;2022-12-18T17:44:27;-6.80;99.90
25438;DHT22;13364;49.084;9.978;2022-12-18T17:46:54;-6.70;99.90
25438;DHT22;13364;49.084;9.978;2022-12-18T17:49:22;-6.80;99.90
25438;DHT22;13364;49.084;9.978;2022-12-18T17:51:49;-6.70;99.90
25438;DHT22;13364;49.084;9.978;2022-12-18T17:54:16;-6.80;99.90
25438;DHT22;13364;49.084;9.978;2022-12-18T17:56:43;-6.70;99.90
25438;DHT22;13364;49.084;9.978;2022-12-18T17:59:10;-6.70;99.90
25438;DHT22;13364;49.084;9.978;2022-12-18T18:01:38;-6.70;99.90
25438;DHT22;13364;49.084;9.978;2022-12-18T18:04:11;-6.70;99.90
25438;DHT22;13364;49.084;9.978;2022-12-18T18:06:39;-6.70;99.90